createdAt,value
2022-10-18T00:00:08.349Z,604.00
2022-10-18T00:00:38.378Z,602.00
2022-10-18T00:01:08.408Z,605.00
2022-10-18T00:01:38.535Z,601.00
2022-10-18T00:02:08.650Z,603.00
2022-10-18T00:02:38.565Z,602.00
2022-10-18T00:03:08.591Z,602.00
2022-10-18T00:03:38.701Z,602.00
2022-10-18T00:04:08.722Z,603.00
2022-10-18T00:04:38.750Z,601.00
2022-10-18T00:05:08.770Z,600.00
2022-10-18T00:05:38.797Z,600.00
2022-10-18T00:06:08.836Z,600.00
2022-10-18T00:06:42.601Z,599.00
2022-10-18T00:07:08.974Z,601.00
2022-10-18T00:07:38.999Z,603.00
2022-10-18T00:08:09.026Z,601.00
2022-10-18T00:08:39.074Z,601.00
2022-10-18T00:09:09.078Z,602.00
2022-10-18T00:09:39.104Z,599.00
2022-10-18T00:10:09.128Z,597.00
2022-10-18T00:10:39.160Z,598.00
2022-10-18T00:11:09.185Z,599.00
2022-10-18T00:11:39.213Z,599.00
2022-10-18T00:12:09.239Z,599.00
2022-10-18T00:12:39.319Z,595.00
2022-10-18T00:13:09.334Z,594.00
2022-10-18T00:13:39.355Z,595.00
2022-10-18T00:14:09.385Z,594.00
2022-10-18T00:14:39.405Z,594.00
2022-10-18T00:15:09.430Z,594.00
2022-10-18T00:15:39.462Z,596.00
2022-10-18T00:16:09.492Z,598.00
2022-10-18T00:16:39.515Z,600.00
2022-10-18T00:17:09.565Z,600.00
2022-10-18T00:17:39.570Z,599.00
2022-10-18T00:18:09.593Z,597.00
2022-10-18T00:18:39.618Z,594.00
2022-10-18T00:19:09.653Z,594.00
2022-10-18T00:19:39.679Z,592.00
2022-10-18T00:20:09.706Z,593.00
2022-10-18T00:20:39.732Z,591.00
2022-10-18T00:21:09.770Z,593.00
2022-10-18T00:21:39.883Z,592.00
2022-10-18T00:22:09.877Z,593.00
2022-10-18T00:22:39.903Z,591.00
2022-10-18T00:23:09.938Z,589.00
2022-10-18T00:23:39.965Z,591.00
2022-10-18T00:24:09.992Z,593.00
2022-10-18T00:24:40.012Z,589.00
2022-10-18T00:25:10.043Z,592.00
2022-10-18T00:25:40.069Z,593.00
2022-10-18T00:26:10.100Z,597.00
2022-10-18T00:26:40.128Z,596.00
2022-10-18T00:27:10.156Z,596.00
2022-10-18T00:27:40.183Z,596.00
2022-10-18T00:28:10.205Z,596.00
2022-10-18T00:28:40.276Z,593.00
2022-10-18T00:29:10.314Z,592.00
2022-10-18T00:29:40.332Z,589.00
2022-10-18T00:30:10.363Z,588.00
2022-10-18T00:30:40.465Z,588.00
2022-10-18T00:31:10.505Z,587.00
2022-10-18T00:31:40.527Z,588.00
2022-10-18T00:32:10.557Z,589.00
2022-10-18T00:32:40.606Z,592.00
2022-10-18T00:33:10.611Z,592.00
2022-10-18T00:33:40.637Z,592.00
2022-10-18T00:34:10.662Z,593.00
2022-10-18T00:34:40.689Z,593.00
2022-10-18T00:35:10.776Z,593.00
2022-10-18T00:35:40.806Z,593.00
2022-10-18T00:36:10.836Z,591.00
2022-10-18T00:36:40.870Z,589.00
2022-10-18T00:37:10.896Z,588.00
2022-10-18T00:37:40.921Z,589.00
2022-10-18T00:38:10.941Z,589.00
2022-10-18T00:38:40.981Z,589.00
2022-10-18T00:39:11.006Z,589.00
2022-10-18T00:39:41.090Z,588.00
2022-10-18T00:40:11.104Z,588.00
2022-10-18T00:40:41.124Z,588.00
2022-10-18T00:41:11.164Z,587.00
2022-10-18T00:41:41.185Z,587.00
2022-10-18T00:42:11.209Z,587.00
2022-10-18T00:42:41.237Z,588.00
2022-10-18T00:43:11.257Z,587.00
2022-10-18T00:43:41.284Z,589.00
2022-10-18T00:44:11.307Z,588.00
2022-10-18T00:44:41.330Z,587.00
2022-10-18T00:45:11.357Z,588.00
2022-10-18T00:45:41.382Z,590.00
2022-10-18T00:46:11.412Z,589.00
2022-10-18T00:46:41.422Z,590.00
2022-10-18T00:47:11.538Z,590.00
2022-10-18T00:47:41.651Z,590.00
2022-10-18T00:48:11.788Z,589.00
2022-10-18T00:48:41.997Z,588.00
2022-10-18T00:49:11.988Z,589.00
2022-10-18T00:49:41.970Z,589.00
2022-10-18T00:50:12.084Z,588.00
2022-10-18T00:50:42.193Z,588.00
2022-10-18T00:51:12.312Z,588.00
2022-10-18T00:51:42.427Z,589.00
2022-10-18T00:52:12.545Z,588.00
2022-10-18T00:52:42.537Z,589.00
2022-10-18T00:53:12.648Z,590.00
2022-10-18T00:53:42.756Z,589.00
2022-10-18T00:54:12.875Z,591.00
2022-10-18T00:54:42.988Z,592.00
2022-10-18T00:55:13.102Z,590.00
2022-10-18T00:55:43.217Z,590.00
2022-10-18T00:56:13.332Z,591.00
2022-10-18T00:56:43.332Z,591.00
2022-10-18T00:57:13.362Z,591.00
2022-10-18T00:57:43.465Z,589.00
2022-10-18T00:58:13.493Z,589.00
2022-10-18T00:58:43.523Z,590.00
2022-10-18T00:59:13.552Z,589.00
2022-10-18T00:59:43.572Z,589.00
2022-10-18T01:00:13.598Z,587.00
2022-10-18T01:00:43.629Z,587.00
2022-10-18T01:01:13.724Z,586.00
2022-10-18T01:01:43.869Z,585.00
2022-10-18T01:02:13.798Z,585.00
2022-10-18T01:02:43.789Z,585.00
2022-10-18T01:03:13.843Z,587.00
2022-10-18T01:03:43.831Z,589.00
2022-10-18T01:04:13.862Z,591.00
2022-10-18T01:04:43.888Z,591.00
2022-10-18T01:05:13.913Z,590.00
2022-10-18T01:05:43.935Z,593.00
2022-10-18T01:06:13.965Z,592.00
2022-10-18T01:06:44.058Z,592.00
2022-10-18T01:07:14.060Z,589.00
2022-10-18T01:07:44.086Z,587.00
2022-10-18T01:08:14.117Z,590.00
2022-10-18T01:08:44.145Z,590.00
2022-10-18T01:09:14.177Z,589.00
2022-10-18T01:09:44.203Z,589.00
2022-10-18T01:10:14.228Z,586.00
2022-10-18T01:10:44.250Z,586.00
2022-10-18T01:11:14.277Z,586.00
2022-10-18T01:11:44.308Z,584.00
2022-10-18T01:12:14.332Z,582.00
2022-10-18T01:12:44.361Z,581.00
2022-10-18T01:13:14.394Z,581.00
2022-10-18T01:13:44.415Z,580.00
2022-10-18T01:14:14.446Z,580.00
2022-10-18T01:14:44.471Z,581.00
2022-10-18T01:15:14.494Z,581.00
2022-10-18T01:15:44.586Z,581.00
2022-10-18T01:16:14.587Z,581.00
2022-10-18T01:16:44.612Z,580.00
2022-10-18T01:17:14.635Z,579.00
2022-10-18T01:17:44.665Z,577.00
2022-10-18T01:18:14.692Z,575.00
2022-10-18T01:18:44.745Z,575.00
2022-10-18T01:19:14.744Z,575.00
2022-10-18T01:19:44.772Z,575.00
2022-10-18T01:20:14.798Z,575.00
2022-10-18T01:20:44.816Z,574.00
2022-10-18T01:21:14.851Z,577.00
2022-10-18T01:21:44.873Z,580.00
2022-10-18T01:22:14.908Z,580.00
2022-10-18T01:22:44.931Z,581.00
2022-10-18T01:23:14.954Z,582.00
2022-10-18T01:23:44.986Z,583.00
2022-10-18T01:24:15.008Z,583.00
2022-10-18T01:24:45.045Z,584.00
2022-10-18T01:25:15.069Z,586.00
2022-10-18T01:25:45.091Z,585.00
2022-10-18T01:26:15.138Z,583.00
2022-10-18T01:26:45.158Z,581.00
2022-10-18T01:27:15.189Z,581.00
2022-10-18T01:27:45.211Z,581.00
2022-10-18T01:28:15.234Z,583.00
2022-10-18T01:28:45.325Z,585.00
2022-10-18T01:29:15.338Z,586.00
2022-10-18T01:29:45.365Z,587.00
2022-10-18T01:30:15.391Z,585.00
2022-10-18T01:30:45.414Z,583.00
2022-10-18T01:31:15.457Z,584.00
2022-10-18T01:31:45.480Z,584.00
2022-10-18T01:32:15.506Z,583.00
2022-10-18T01:32:45.531Z,581.00
2022-10-18T01:33:15.559Z,582.00
2022-10-18T01:33:45.584Z,580.00
2022-10-18T01:34:15.669Z,579.00
2022-10-18T01:34:45.649Z,580.00
2022-10-18T01:35:15.672Z,582.00
2022-10-18T01:35:45.697Z,581.00
2022-10-18T01:36:15.725Z,582.00
2022-10-18T01:36:45.745Z,584.00
2022-10-18T01:37:15.777Z,583.00
2022-10-18T01:37:45.805Z,582.00
2022-10-18T01:38:15.832Z,582.00
2022-10-18T01:38:45.854Z,581.00
2022-10-18T01:39:15.889Z,578.00
2022-10-18T01:39:45.916Z,576.00
2022-10-18T01:40:15.942Z,578.00
2022-10-18T01:40:45.971Z,579.00
2022-10-18T01:41:16.166Z,579.00
2022-10-18T01:41:46.068Z,579.00
2022-10-18T01:42:16.102Z,578.00
2022-10-18T01:42:46.124Z,578.00
2022-10-18T01:43:16.152Z,579.00
2022-10-18T01:43:46.173Z,581.00
2022-10-18T01:44:16.208Z,581.00
2022-10-18T01:44:46.242Z,582.00
2022-10-18T01:45:16.270Z,582.00
2022-10-18T01:45:46.296Z,583.00
2022-10-18T01:46:16.322Z,582.00
2022-10-18T01:46:46.321Z,581.00
2022-10-18T01:47:16.439Z,579.00
2022-10-18T01:47:46.549Z,579.00
2022-10-18T01:48:16.660Z,578.00
2022-10-18T01:48:46.768Z,577.00
2022-10-18T01:49:16.927Z,576.00
2022-10-18T01:49:46.944Z,578.00
2022-10-18T01:50:17.033Z,579.00
2022-10-18T01:50:47.148Z,578.00
2022-10-18T01:51:17.264Z,577.00
2022-10-18T01:51:47.369Z,577.00
2022-10-18T01:52:17.486Z,576.00
2022-10-18T01:52:47.600Z,576.00
2022-10-18T01:53:17.719Z,575.00
2022-10-18T01:53:47.831Z,577.00
2022-10-18T01:54:17.945Z,576.00
2022-10-18T01:54:48.054Z,575.00
2022-10-18T01:55:18.115Z,574.00
2022-10-18T01:55:48.222Z,575.00
2022-10-18T01:56:18.260Z,577.00
2022-10-18T01:56:48.270Z,577.00
2022-10-18T01:57:18.293Z,577.00
2022-10-18T01:57:48.318Z,577.00
2022-10-18T01:58:18.345Z,576.00
2022-10-18T01:58:48.375Z,575.00
2022-10-18T01:59:18.399Z,573.00
2022-10-18T01:59:48.427Z,573.00
2022-10-18T02:00:18.458Z,571.00
2022-10-18T02:00:48.483Z,571.00
2022-10-18T02:01:18.515Z,572.00
2022-10-18T02:01:48.537Z,573.00
2022-10-18T02:02:18.565Z,572.00
2022-10-18T02:02:48.592Z,571.00
2022-10-18T02:03:18.624Z,571.00
2022-10-18T02:03:48.650Z,572.00
2022-10-18T02:04:18.674Z,572.00
2022-10-18T02:04:48.700Z,571.00
2022-10-18T02:05:18.746Z,573.00
2022-10-18T02:05:48.747Z,573.00
2022-10-18T02:06:18.774Z,572.00
2022-10-18T02:06:48.801Z,572.00
2022-10-18T02:07:18.831Z,572.00
2022-10-18T02:07:55.351Z,571.00
2022-10-18T02:08:23.145Z,571.00
2022-10-18T02:08:48.941Z,571.00
2022-10-18T02:09:18.965Z,572.00
2022-10-18T02:09:48.990Z,575.00
2022-10-18T02:10:19.020Z,576.00
2022-10-18T02:10:49.048Z,576.00
2022-10-18T02:11:19.094Z,576.00
2022-10-18T02:11:49.124Z,576.00
2022-10-18T02:12:19.161Z,576.00
2022-10-18T02:12:49.178Z,577.00
2022-10-18T02:13:19.209Z,577.00
2022-10-18T02:13:49.232Z,578.00
2022-10-18T02:14:19.257Z,579.00
2022-10-18T02:14:49.282Z,578.00
2022-10-18T02:15:19.307Z,577.00
2022-10-18T02:15:49.340Z,577.00
2022-10-18T02:16:19.368Z,575.00
2022-10-18T02:16:49.393Z,574.00
2022-10-18T02:17:19.417Z,574.00
2022-10-18T02:17:49.448Z,575.00
2022-10-18T02:18:19.475Z,574.00
2022-10-18T02:18:49.498Z,572.00
2022-10-18T02:19:19.578Z,572.00
2022-10-18T02:19:49.585Z,573.00
2022-10-18T02:20:19.617Z,572.00
2022-10-18T02:20:49.668Z,571.00
2022-10-18T02:21:19.678Z,569.00
2022-10-18T02:21:49.708Z,568.00
2022-10-18T02:22:19.730Z,568.00
2022-10-18T02:22:49.758Z,567.00
2022-10-18T02:23:19.778Z,569.00
2022-10-18T02:23:49.805Z,568.00
2022-10-18T02:24:19.829Z,568.00
2022-10-18T02:24:49.861Z,566.00
2022-10-18T02:25:19.883Z,567.00
2022-10-18T02:25:49.905Z,566.00
2022-10-18T02:26:19.944Z,565.00
2022-10-18T02:26:49.972Z,567.00
2022-10-18T02:27:19.998Z,567.00
2022-10-18T02:27:50.028Z,567.00
2022-10-18T02:28:20.149Z,570.00
2022-10-18T02:28:50.056Z,569.00
2022-10-18T02:29:20.081Z,568.00
2022-10-18T02:29:50.111Z,568.00
2022-10-18T02:30:20.138Z,568.00
2022-10-18T02:30:50.159Z,566.00
2022-10-18T02:31:20.193Z,564.00
2022-10-18T02:31:50.213Z,565.00
2022-10-18T02:32:20.246Z,566.00
2022-10-18T02:32:50.275Z,567.00
2022-10-18T02:33:20.293Z,567.00
2022-10-18T02:33:50.326Z,568.00
2022-10-18T02:34:20.346Z,569.00
2022-10-18T02:34:50.374Z,570.00
2022-10-18T02:35:20.400Z,568.00
2022-10-18T02:35:50.424Z,568.00
2022-10-18T02:36:20.475Z,568.00
2022-10-18T02:36:50.489Z,570.00
2022-10-18T02:37:20.564Z,570.00
2022-10-18T02:37:50.571Z,569.00
2022-10-18T02:38:20.597Z,568.00
2022-10-18T02:38:50.620Z,568.00
2022-10-18T02:39:20.643Z,568.00
2022-10-18T02:39:50.670Z,566.00
2022-10-18T02:40:20.696Z,566.00
2022-10-18T02:40:50.723Z,565.00
2022-10-18T02:41:20.761Z,565.00
2022-10-18T02:41:50.784Z,564.00
2022-10-18T02:42:20.810Z,564.00
2022-10-18T02:42:50.834Z,565.00
2022-10-18T02:43:20.861Z,564.00
2022-10-18T02:43:50.884Z,564.00
2022-10-18T02:44:20.917Z,564.00
2022-10-18T02:44:50.962Z,564.00
2022-10-18T02:45:20.978Z,565.00
2022-10-18T02:45:51.006Z,566.00
2022-10-18T02:46:21.107Z,565.00
2022-10-18T02:46:51.122Z,565.00
2022-10-18T02:47:21.236Z,564.00
2022-10-18T02:47:51.345Z,565.00
2022-10-18T02:48:21.458Z,567.00
2022-10-18T02:48:51.574Z,567.00
2022-10-18T02:49:21.684Z,566.00
2022-10-18T02:49:51.802Z,567.00
2022-10-18T02:50:21.910Z,567.00
2022-10-18T02:50:52.028Z,566.00
2022-10-18T02:51:22.171Z,565.00
2022-10-18T02:51:52.181Z,564.00
2022-10-18T02:52:22.273Z,563.00
2022-10-18T02:52:52.381Z,562.00
2022-10-18T02:53:22.497Z,561.00
2022-10-18T02:53:52.611Z,559.00
2022-10-18T02:54:22.720Z,557.00
2022-10-18T02:54:52.838Z,556.00
2022-10-18T02:55:23.019Z,556.00
2022-10-18T02:55:52.999Z,555.00
2022-10-18T02:56:23.127Z,556.00
2022-10-18T02:56:53.147Z,555.00
2022-10-18T02:57:23.173Z,557.00
2022-10-18T02:57:53.200Z,558.00
2022-10-18T02:58:23.226Z,560.00
2022-10-18T02:58:53.254Z,560.00
2022-10-18T02:59:23.278Z,558.00
2022-10-18T02:59:53.299Z,560.00
2022-10-18T03:00:23.320Z,559.00
2022-10-18T03:00:53.350Z,559.00
2022-10-18T03:01:23.446Z,560.00
2022-10-18T03:01:53.544Z,560.00
2022-10-18T03:02:23.449Z,560.00
2022-10-18T03:02:53.470Z,560.00
2022-10-18T03:03:23.494Z,559.00
2022-10-18T03:03:53.518Z,559.00
2022-10-18T03:04:23.573Z,559.00
2022-10-18T03:04:53.580Z,558.00
2022-10-18T03:05:23.604Z,557.00
2022-10-18T03:05:53.634Z,557.00
2022-10-18T03:06:23.769Z,558.00
2022-10-18T03:06:53.669Z,558.00
2022-10-18T03:07:23.717Z,558.00
2022-10-18T03:07:53.722Z,560.00
2022-10-18T03:08:23.743Z,562.00
2022-10-18T03:08:53.772Z,562.00
2022-10-18T03:09:23.795Z,561.00
2022-10-18T03:09:53.818Z,563.00
2022-10-18T03:10:23.844Z,561.00
2022-10-18T03:10:53.874Z,560.00
2022-10-18T03:11:23.911Z,560.00
2022-10-18T03:11:53.939Z,559.00
2022-10-18T03:12:23.959Z,559.00
2022-10-18T03:12:53.986Z,560.00
2022-10-18T03:13:24.052Z,559.00
2022-10-18T03:13:54.063Z,558.00
2022-10-18T03:14:24.084Z,558.00
2022-10-18T03:14:54.109Z,557.00
2022-10-18T03:15:24.138Z,556.00
2022-10-18T03:15:54.163Z,557.00
2022-10-18T03:16:24.209Z,555.00
2022-10-18T03:16:54.238Z,556.00
2022-10-18T03:17:24.258Z,555.00
2022-10-18T03:17:54.290Z,555.00
2022-10-18T03:18:24.312Z,557.00
2022-10-18T03:18:54.341Z,557.00
2022-10-18T03:19:24.367Z,557.00
2022-10-18T03:19:54.388Z,557.00
2022-10-18T03:20:24.414Z,556.00
2022-10-18T03:20:54.438Z,556.00
2022-10-18T03:21:24.469Z,555.00
2022-10-18T03:21:54.495Z,553.00
2022-10-18T03:22:24.568Z,553.00
2022-10-18T03:22:54.600Z,554.00
2022-10-18T03:23:24.599Z,555.00
2022-10-18T03:23:54.623Z,555.00
2022-10-18T03:24:24.648Z,555.00
2022-10-18T03:24:54.681Z,553.00
2022-10-18T03:25:24.704Z,553.00
2022-10-18T03:25:54.729Z,554.00
2022-10-18T03:26:24.766Z,555.00
2022-10-18T03:26:54.789Z,557.00
2022-10-18T03:27:24.814Z,556.00
2022-10-18T03:27:54.844Z,557.00
2022-10-18T03:28:24.924Z,556.00
2022-10-18T03:28:55.132Z,556.00
2022-10-18T03:29:25.065Z,553.00
2022-10-18T03:29:55.097Z,554.00
2022-10-18T03:30:25.123Z,555.00
2022-10-18T03:30:55.153Z,555.00
2022-10-18T03:31:25.345Z,556.00
2022-10-18T03:31:55.226Z,557.00
2022-10-18T03:32:25.248Z,557.00
2022-10-18T03:32:55.271Z,558.00
2022-10-18T03:33:25.295Z,559.00
2022-10-18T03:33:55.326Z,560.00
2022-10-18T03:34:25.354Z,559.00
2022-10-18T03:34:55.376Z,558.00
2022-10-18T03:35:25.398Z,557.00
2022-10-18T03:35:55.422Z,558.00
2022-10-18T03:36:25.468Z,557.00
2022-10-18T03:36:55.489Z,557.00
2022-10-18T03:37:25.519Z,557.00
2022-10-18T03:37:55.561Z,558.00
2022-10-18T03:38:25.611Z,559.00
2022-10-18T03:38:55.613Z,559.00
2022-10-18T03:39:25.636Z,559.00
2022-10-18T03:39:55.668Z,559.00
2022-10-18T03:40:25.745Z,559.00
2022-10-18T03:40:55.765Z,558.00
2022-10-18T03:41:25.807Z,557.00
2022-10-18T03:41:55.836Z,556.00
2022-10-18T03:42:25.863Z,557.00
2022-10-18T03:42:55.890Z,558.00
2022-10-18T03:43:25.919Z,557.00
2022-10-18T03:43:55.940Z,556.00
2022-10-18T03:44:25.969Z,558.00
2022-10-18T03:44:55.998Z,558.00
2022-10-18T03:45:28.960Z,558.00
2022-10-18T03:45:56.062Z,558.00
2022-10-18T03:46:26.087Z,557.00
2022-10-18T03:46:56.203Z,558.00
2022-10-18T03:47:26.315Z,558.00
2022-10-18T03:47:56.429Z,559.00
2022-10-18T03:48:26.550Z,559.00
2022-10-18T03:48:56.658Z,561.00
2022-10-18T03:49:26.797Z,557.00
2022-10-18T03:49:57.330Z,558.00
2022-10-18T03:50:26.868Z,557.00
2022-10-18T03:50:56.985Z,559.00
2022-10-18T03:51:27.106Z,560.00
2022-10-18T03:51:57.101Z,565.00
2022-10-18T03:52:27.212Z,569.00
2022-10-18T03:52:57.323Z,565.00
2022-10-18T03:53:27.471Z,563.00
2022-10-18T03:53:57.552Z,562.00
2022-10-18T03:54:27.666Z,563.00
2022-10-18T03:54:57.785Z,561.00
2022-10-18T03:55:27.893Z,560.00
2022-10-18T03:55:58.011Z,560.00
2022-10-18T03:56:28.127Z,560.00
2022-10-18T03:56:58.151Z,560.00
2022-10-18T03:57:28.174Z,558.00
2022-10-18T03:57:58.203Z,559.00
2022-10-18T03:58:28.316Z,560.00
2022-10-18T03:58:58.341Z,558.00
2022-10-18T03:59:28.364Z,559.00
2022-10-18T03:59:58.390Z,561.00
2022-10-18T04:00:28.412Z,562.00
2022-10-18T04:00:58.448Z,563.00
2022-10-18T04:01:28.517Z,564.00
2022-10-18T04:01:58.585Z,567.00
2022-10-18T04:02:28.734Z,565.00
2022-10-18T04:02:58.602Z,565.00
2022-10-18T04:03:28.631Z,569.00
2022-10-18T04:03:58.656Z,571.00
2022-10-18T04:04:28.682Z,574.00
2022-10-18T04:04:58.718Z,579.00
2022-10-18T04:05:28.733Z,579.00
2022-10-18T04:05:58.762Z,583.00
2022-10-18T04:06:28.806Z,586.00
2022-10-18T04:06:58.832Z,593.00
2022-10-18T04:07:28.919Z,595.00
2022-10-18T04:07:58.921Z,594.00
2022-10-18T04:08:28.948Z,596.00
2022-10-18T04:08:58.993Z,595.00
2022-10-18T04:09:28.993Z,596.00
2022-10-18T04:09:59.019Z,597.00
2022-10-18T04:10:29.042Z,607.00
2022-10-18T04:10:59.072Z,613.00
2022-10-18T04:11:29.110Z,611.00
2022-10-18T04:11:59.146Z,611.00
2022-10-18T04:12:29.495Z,610.00
2022-10-18T04:12:59.227Z,610.00
2022-10-18T04:13:29.251Z,612.00
2022-10-18T04:13:59.276Z,617.00
2022-10-18T04:14:29.303Z,620.00
2022-10-18T04:14:59.323Z,621.00
2022-10-18T04:15:29.351Z,624.00
2022-10-18T04:15:59.382Z,622.00
2022-10-18T04:16:29.445Z,625.00
2022-10-18T04:16:59.465Z,627.00
2022-10-18T04:17:29.644Z,625.00
2022-10-18T04:17:59.580Z,623.00
2022-10-18T04:18:29.604Z,625.00
2022-10-18T04:18:59.633Z,623.00
2022-10-18T04:19:29.666Z,625.00
2022-10-18T04:19:59.689Z,626.00
2022-10-18T04:20:29.718Z,627.00
2022-10-18T04:20:59.744Z,628.00
2022-10-18T04:21:29.794Z,627.00
2022-10-18T04:21:59.820Z,629.00
2022-10-18T04:22:29.845Z,628.00
2022-10-18T04:22:59.873Z,626.00
2022-10-18T04:23:31.835Z,628.00
2022-10-18T04:23:59.940Z,659.00
2022-10-18T04:24:29.994Z,633.00
2022-10-18T04:24:59.993Z,631.00
2022-10-18T04:25:30.091Z,628.00
2022-10-18T04:26:00.151Z,630.00
2022-10-18T04:26:30.156Z,633.00
2022-10-18T04:27:00.174Z,635.00
2022-10-18T04:27:30.470Z,636.00
2022-10-18T04:28:00.228Z,636.00
2022-10-18T04:28:30.291Z,636.00
2022-10-18T04:29:00.431Z,636.00
2022-10-18T04:29:30.369Z,635.00
2022-10-18T04:30:00.393Z,632.00
2022-10-18T04:30:30.417Z,632.00
2022-10-18T04:31:00.439Z,632.00
2022-10-18T04:31:30.489Z,631.00
2022-10-18T04:32:00.513Z,633.00
2022-10-18T04:32:30.540Z,631.00
2022-10-18T04:33:00.572Z,631.00
2022-10-18T04:33:30.593Z,634.00
2022-10-18T04:34:00.617Z,642.00
2022-10-18T04:34:30.700Z,642.00
2022-10-18T04:35:00.742Z,640.00
2022-10-18T04:35:30.829Z,638.00
2022-10-18T04:36:00.879Z,638.00
2022-10-18T04:36:30.934Z,637.00
2022-10-18T04:37:00.952Z,639.00
2022-10-18T04:37:31.373Z,643.00
2022-10-18T04:38:01.058Z,645.00
2022-10-18T04:38:31.086Z,646.00
2022-10-18T04:39:01.112Z,652.00
2022-10-18T04:39:31.133Z,656.00
2022-10-18T04:40:01.181Z,659.00
2022-10-18T04:40:31.182Z,662.00
2022-10-18T04:41:01.206Z,668.00
2022-10-18T04:41:31.259Z,682.00
2022-10-18T04:42:01.289Z,688.00
2022-10-18T04:42:31.314Z,683.00
2022-10-18T04:43:01.348Z,684.00
2022-10-18T04:43:31.373Z,691.00
2022-10-18T04:44:01.404Z,698.00
2022-10-18T04:44:31.429Z,703.00
2022-10-18T04:45:01.466Z,705.00
2022-10-18T04:45:31.493Z,705.00
2022-10-18T04:46:01.521Z,700.00
2022-10-18T04:46:31.562Z,695.00
2022-10-18T04:47:40.500Z,656.00
2022-10-18T04:48:10.578Z,664.00
2022-10-18T04:48:40.653Z,673.00
2022-10-18T04:49:10.728Z,674.00
2022-10-18T04:49:40.797Z,679.00
2022-10-18T04:50:10.878Z,677.00
2022-10-18T04:50:40.955Z,672.00
2022-10-18T04:51:11.026Z,669.00
2022-10-18T04:51:41.116Z,666.00
2022-10-18T04:52:11.203Z,665.00
2022-10-18T04:52:41.321Z,664.00
2022-10-18T04:53:11.377Z,664.00
2022-10-18T04:53:41.452Z,665.00
2022-10-18T04:54:11.524Z,665.00
2022-10-18T04:54:41.597Z,664.00
2022-10-18T04:55:11.698Z,660.00
2022-10-18T04:55:41.766Z,658.00
2022-10-18T04:56:11.827Z,656.00
2022-10-18T04:56:41.950Z,655.00
2022-10-18T04:57:12.015Z,654.00
2022-10-18T04:57:42.125Z,655.00
2022-10-18T04:58:12.239Z,656.00
2022-10-18T04:58:42.354Z,654.00
2022-10-18T04:59:12.471Z,652.00
2022-10-18T04:59:42.586Z,652.00
2022-10-18T05:00:12.697Z,648.00
2022-10-18T05:00:42.815Z,648.00
2022-10-18T05:01:12.863Z,647.00
2022-10-18T05:01:43.023Z,647.00
2022-10-18T05:02:12.911Z,644.00
2022-10-18T05:02:43.025Z,643.00
2022-10-18T05:03:13.178Z,641.00
2022-10-18T05:03:43.162Z,640.00
2022-10-18T05:04:13.268Z,640.00
2022-10-18T05:04:43.383Z,642.00
2022-10-18T05:05:14.311Z,641.00
2022-10-18T05:06:00.915Z,640.00
2022-10-18T05:06:13.582Z,641.00
2022-10-18T05:06:43.732Z,641.00
2022-10-18T05:07:13.718Z,640.00
2022-10-18T05:07:43.833Z,638.00
2022-10-18T05:08:13.945Z,638.00
2022-10-18T05:08:44.060Z,636.00
2022-10-18T05:09:14.177Z,636.00
2022-10-18T05:09:44.296Z,638.00
2022-10-18T05:10:14.317Z,636.00
2022-10-18T05:10:44.411Z,637.00
2022-10-18T05:11:14.522Z,637.00
2022-10-18T05:11:44.643Z,636.00
2022-10-18T05:12:14.629Z,634.00
2022-10-18T05:12:44.747Z,635.00
2022-10-18T05:13:14.854Z,633.00
2022-10-18T05:13:47.220Z,632.00
2022-10-18T05:14:14.990Z,630.00
2022-10-18T05:14:45.107Z,630.00
2022-10-18T05:15:15.225Z,630.00
2022-10-18T05:15:45.333Z,628.00
2022-10-18T05:16:15.325Z,629.00
2022-10-18T05:16:45.570Z,630.00
2022-10-18T05:17:15.559Z,631.00
2022-10-18T05:17:45.671Z,630.00
2022-10-18T05:18:15.793Z,631.00
2022-10-18T05:18:45.790Z,633.00
2022-10-18T05:19:15.894Z,635.00
2022-10-18T05:19:46.005Z,636.00
2022-10-18T05:20:16.122Z,637.00
2022-10-18T05:20:46.235Z,638.00
2022-10-18T05:21:16.346Z,644.00
2022-10-18T05:21:46.470Z,643.00
2022-10-18T05:22:16.575Z,642.00
2022-10-18T05:22:46.692Z,647.00
2022-10-18T05:23:16.806Z,651.00
2022-10-18T05:23:46.922Z,654.00
2022-10-18T05:24:17.035Z,653.00
2022-10-18T05:24:47.147Z,653.00
2022-10-18T05:25:17.166Z,649.00
2022-10-18T05:25:47.255Z,648.00
2022-10-18T05:26:17.369Z,645.00
2022-10-18T05:26:47.494Z,643.00
2022-10-18T05:27:17.478Z,644.00
2022-10-18T05:27:47.601Z,644.00
2022-10-18T05:28:45.510Z,644.00
2022-10-18T05:28:47.678Z,647.00
2022-10-18T05:29:17.811Z,646.00
2022-10-18T05:29:47.720Z,645.00
2022-10-18T05:30:17.736Z,644.00
2022-10-18T05:30:47.862Z,645.00
2022-10-18T05:31:17.965Z,643.00
2022-10-18T05:31:48.082Z,642.00
2022-10-18T05:32:18.194Z,640.00
2022-10-18T05:32:48.303Z,639.00
2022-10-18T05:33:18.418Z,636.00
2022-10-18T05:33:48.554Z,634.00
2022-10-18T05:34:18.659Z,634.00
2022-10-18T05:34:48.648Z,634.00
2022-10-18T05:35:18.754Z,635.00
2022-10-18T05:35:48.871Z,634.00
2022-10-18T05:36:18.989Z,632.00
2022-10-18T05:36:48.976Z,633.00
2022-10-18T05:37:19.097Z,635.00
2022-10-18T05:37:49.202Z,635.00
2022-10-18T05:38:19.196Z,634.00
2022-10-18T05:38:49.315Z,636.00
2022-10-18T05:39:19.421Z,636.00
2022-10-18T05:39:49.535Z,635.00
2022-10-18T05:40:19.668Z,635.00
2022-10-18T05:40:49.763Z,636.00
2022-10-18T05:41:19.756Z,635.00
2022-10-18T05:41:49.868Z,634.00
2022-10-18T05:42:19.985Z,633.00
2022-10-18T05:42:50.090Z,633.00
2022-10-18T05:43:20.200Z,633.00
2022-10-18T05:43:50.318Z,633.00
2022-10-18T05:44:20.436Z,637.00
2022-10-18T05:44:50.426Z,637.00
2022-10-18T05:45:20.538Z,639.00
2022-10-18T05:45:50.651Z,641.00
2022-10-18T05:46:20.767Z,643.00
2022-10-18T05:46:50.875Z,643.00
2022-10-18T05:47:20.986Z,643.00
2022-10-18T05:47:51.054Z,640.00
2022-10-18T05:48:21.124Z,641.00
2022-10-18T05:48:51.204Z,639.00
2022-10-18T05:49:21.279Z,639.00
2022-10-18T05:49:51.354Z,639.00
2022-10-18T05:50:21.427Z,639.00
2022-10-18T05:50:51.510Z,638.00
2022-10-18T05:51:21.587Z,636.00
2022-10-18T05:51:51.663Z,633.00
2022-10-18T05:52:21.736Z,633.00
2022-10-18T05:52:51.812Z,632.00
2022-10-18T05:53:36.259Z,632.00
2022-10-18T05:53:51.990Z,633.00
2022-10-18T05:54:22.093Z,633.00
2022-10-18T05:54:52.066Z,632.00
2022-10-18T05:55:22.139Z,630.00
2022-10-18T05:55:52.286Z,629.00
2022-10-18T05:56:22.320Z,629.00
2022-10-18T05:56:52.401Z,629.00
2022-10-18T05:57:22.519Z,629.00
2022-10-18T05:57:52.503Z,627.00
2022-10-18T05:58:22.620Z,628.00
2022-10-18T05:58:52.731Z,629.00
2022-10-18T05:59:22.740Z,629.00
2022-10-18T05:59:52.878Z,627.00
2022-10-18T06:00:22.893Z,625.00
2022-10-18T06:00:53.006Z,623.00
2022-10-18T06:01:23.152Z,622.00
2022-10-18T06:01:53.174Z,622.00
2022-10-18T06:02:23.346Z,620.00
2022-10-18T06:02:55.250Z,621.00
2022-10-18T06:03:23.418Z,620.00
2022-10-18T06:03:53.561Z,618.00
2022-10-18T06:04:23.551Z,618.00
2022-10-18T06:04:53.682Z,617.00
2022-10-18T06:05:23.682Z,616.00
2022-10-18T06:05:53.806Z,616.00
2022-10-18T06:06:23.806Z,614.00
2022-10-18T06:06:53.936Z,615.00
2022-10-18T06:07:23.936Z,615.00
2022-10-18T06:07:54.050Z,615.00
2022-10-18T06:08:24.048Z,616.00
2022-10-18T06:08:54.159Z,615.00
2022-10-18T06:09:24.273Z,616.00
2022-10-18T06:09:54.385Z,615.00
2022-10-18T06:10:24.499Z,615.00
2022-10-18T06:10:54.500Z,617.00
2022-10-18T06:11:24.642Z,617.00
2022-10-18T06:11:54.620Z,617.00
2022-10-18T06:12:24.626Z,619.00
2022-10-18T06:12:54.735Z,618.00
2022-10-18T06:13:24.845Z,621.00
2022-10-18T06:13:54.957Z,622.00
2022-10-18T06:14:25.064Z,620.00
2022-10-18T06:14:55.067Z,619.00
2022-10-18T06:15:25.176Z,619.00